createdAt,value
2019-05-22T14:29:01.019Z,1396.00
2019-05-22T14:30:00.875Z,1408.00
2019-05-22T14:31:00.706Z,1440.00
2019-05-22T14:32:01.039Z,1236.00
2019-05-22T14:33:04.431Z,1212.00
2019-05-22T14:34:00.555Z,1016.00
2019-05-22T14:35:01.088Z,976.00
2019-05-22T14:36:00.380Z,1096.00
2019-05-22T14:37:00.467Z,956.00
2019-05-22T14:38:00.443Z,836.00
2019-05-22T14:39:00.377Z,876.00
2019-05-22T14:40:00.488Z,1168.00
2019-05-22T14:41:00.867Z,900.00
2019-05-22T14:42:00.087Z,868.00
2019-05-22T14:43:00.085Z,904.00
2019-05-22T14:44:00.236Z,940.00
2019-05-22T14:45:00.008Z,916.00
2019-05-22T14:46:00.066Z,904.00
2019-05-22T14:47:12.333Z,848.00
2019-05-22T14:48:00.766Z,768.00
2019-05-22T14:48:59.719Z,640.00
2019-05-22T14:49:59.809Z,600.00
2019-05-22T14:50:59.676Z,576.00
2019-05-22T14:51:59.458Z,544.00
2019-05-22T14:52:59.669Z,560.00
2019-05-22T14:53:59.514Z,608.00
2019-05-22T14:54:59.516Z,608.00
2019-05-22T14:55:59.869Z,560.00
2019-05-22T14:56:59.360Z,500.00
2019-05-22T14:57:59.233Z,588.00
2019-05-22T14:58:59.318Z,668.00
2019-05-22T14:59:59.112Z,720.00
2019-05-22T15:00:59.224Z,788.00
2019-05-22T15:01:59.014Z,856.00
2019-05-22T15:02:59.587Z,876.00
2019-05-22T15:03:58.975Z,996.00
2019-05-22T15:04:59.120Z,1084.00
2019-05-22T15:05:58.875Z,1024.00
2019-05-22T15:06:58.741Z,888.00
2019-05-22T15:07:58.513Z,812.00
2019-05-22T15:08:58.582Z,776.00
2019-05-22T15:09:58.434Z,844.00
2019-05-22T15:10:58.526Z,924.00
2019-05-22T15:11:58.588Z,888.00
2019-05-22T15:12:58.574Z,884.00
2019-05-22T15:13:58.273Z,860.00
2019-05-22T15:14:58.285Z,868.00
2019-05-22T15:15:58.150Z,836.00
2019-05-22T15:16:58.193Z,868.00
2019-05-22T15:17:58.162Z,956.00
2019-05-22T15:18:57.936Z,1072.00
2019-05-22T15:19:57.982Z,1120.00
2019-05-22T15:20:57.945Z,1092.00
2019-05-22T15:21:57.829Z,1088.00
2019-05-22T15:22:57.682Z,1152.00
2019-05-22T15:23:57.869Z,1188.00
2019-05-22T15:24:57.627Z,1128.00
2019-05-22T15:29:50.966Z,1240.00
2019-05-22T15:30:50.634Z,1172.00
2019-05-22T15:31:50.594Z,1252.00
2019-05-22T15:32:50.634Z,1076.00
2019-05-22T15:33:51.726Z,960.00
2019-05-22T15:34:50.562Z,1096.00
2019-05-22T15:35:50.862Z,1148.00
2019-05-22T15:36:50.566Z,1024.00
2019-05-22T15:37:50.582Z,1024.00
2019-05-22T15:38:50.735Z,928.00
2019-05-22T15:39:50.638Z,940.00
2019-05-22T15:40:50.709Z,1020.00
2019-05-22T15:41:50.819Z,1008.00
2019-05-22T15:42:50.687Z,848.00
2019-05-22T15:43:52.892Z,844.00
2019-05-22T15:44:50.604Z,756.00
2019-05-22T15:45:50.725Z,756.00
2019-05-22T15:46:51.409Z,804.00
2019-05-22T15:47:55.168Z,876.00
2019-05-22T15:50:45.017Z,944.00
2019-05-22T15:51:45.065Z,888.00
2019-05-22T15:52:44.814Z,912.00
2019-05-22T15:53:44.894Z,904.00
2019-05-22T15:54:44.723Z,860.00
2019-05-22T15:55:44.867Z,828.00
2019-05-22T15:56:44.705Z,864.00
